sensor_id;sensor_type;location;lat;lon;timestamp;temperature;humidity
13074;DHT22;6603;47.066;15.396;2023-08-20T00:01:30;19.90;99.90
13074;DHT22;6603;47.066;15.396;2023-08-20T00:03:57;20.00;99.90
13074;DHT22;6603;47.066;15.396;2023-08-20T00:06:23;20.00;99.90
13074;DHT22;6603;47.066;15.396;2023-08-20T00:08:50;19.90;99.90
13074;DHT22;6603;47.066;15.396;2023-08-20T00:11:16;19.90;99.90
13074;DHT22;6603;47.066;15.396;2023-08-20T00:13:42;19.90;99.90
13074;DHT22;6603;47.066;15.396;2023-08-20T00:16:09;19.90;99.90
13074;DHT22;6603;47.066;15.396;2023-08-20T00:18:35;19.90;99.90
13074;DHT22;6603;47.066;15.396;2023-08-20T00:21:01;19.90;99.90
13074;DHT22;6603;47.066;15.396;2023-08-20T00:23:28;20.00;99.90
13074;DHT22;6603;47.066;15.396;2023-08-20T00:25:55;19.90;99.90
13074;DHT22;6603;47.066;15.396;2023-08-20T00:28:21;19.90;99.90
13074;DHT22;6603;47.066;15.396;2023-08-20T00:30:46;19.80;99.90
13074;DHT22;6603;47.066;15.396;2023-08-20T00:33:12;19.90;99.90
13074;DHT22;6603;47.066;15.396;2023-08-20T00:35:38;19.90;99.90
13074;DHT22;6603;47.066;15.396;2023-08-20T00:38:05;19.90;99.90
13074;DHT22;6603;47.066;15.396;2023-08-20T00:40:32;19.90;99.90
13074;DHT22;6603;47.066;15.396;2023-08-20T00:42:58;19.90;99.90
13074;DHT22;6603;47.066;15.396;2023-08-20T00:45:26;19.90;99.90
13074;DHT22;6603;47.066;15.396;2023-08-20T00:47:52;19.90;99.90
13074;DHT22;6603;47.066;15.396;2023-08-20T00:50:19;19.80;99.90
13074;DHT22;6603;47.066;15.396;2023-08-20T00:52:46;19.80;99.90
13074;DHT22;6603;47.066;15.396;2023-08-20T00:55:12;19.70;99.90
13074;DHT22;6603;47.066;15.396;2023-08-20T00:57:41;19.70;99.90
13074;DHT22;6603;47.066;15.396;2023-08-20T01:00:08;19.70;99.90
13074;DHT22;6603;47.066;15.396;2023-08-20T01:02:37;19.80;99.90
13074;DHT22;6603;47.066;15.396;2023-08-20T01:05:05;19.70;99.90
13074;DHT22;6603;47.066;15.396;2023-08-20T01:10:13;19.70;99.90
13074;DHT22;6603;47.066;15.396;2023-08-20T01:12:41;19.70;99.90
13074;DHT22;6603;47.066;15.396;2023-08-20T01:15:09;19.70;99.90
13074;DHT22;6603;47.066;15.396;2023-08-20T01:17:43;19.60;99.90
13074;DHT22;6603;47.066;15.396;2023-08-20T01:20:10;19.60;99.90
13074;DHT22;6603;47.066;15.396;2023-08-20T01:28:28;19.60;99.90
13074;DHT22;6603;47.066;15.396;2023-08-20T01:30:57;19.60;99.90
13074;DHT22;6603;47.066;15.396;2023-08-20T01:33:23;19.60;99.90
13074;DHT22;6603;47.066;15.396;2023-08-20T01:35:53;19.50;99.90
13074;DHT22;6603;47.066;15.396;2023-08-20T01:38:20;19.80;99.90
13074;DHT22;6603;47.066;15.396;2023-08-20T01:40:47;19.90;99.90
13074;DHT22;6603;47.066;15.396;2023-08-20T01:43:13;20.00;99.90
13074;DHT22;6603;47.066;15.396;2023-08-20T01:45:38;20.50;99.90
13074;DHT22;6603;47.066;15.396;2023-08-20T01:48:04;20.70;99.90
13074;DHT22;6603;47.066;15.396;2023-08-20T01:50:31;21.10;99.90
13074;DHT22;6603;47.066;15.396;2023-08-20T01:52:56;21.50;99.90
13074;DHT22;6603;47.066;15.396;2023-08-20T01:55:22;21.70;99.90
13074;DHT22;6603;47.066;15.396;2023-08-20T01:57:48;21.80;99.90
13074;DHT22;6603;47.066;15.396;2023-08-20T02:00:15;21.60;99.90
13074;DHT22;6603;47.066;15.396;2023-08-20T02:02:40;21.30;99.90
13074;DHT22;6603;47.066;15.396;2023-08-20T02:05:06;21.00;99.90
13074;DHT22;6603;47.066;15.396;2023-08-20T02:07:32;20.80;99.90
13074;DHT22;6603;47.066;15.396;2023-08-20T02:09:58;20.70;99.90
13074;DHT22;6603;47.066;15.396;2023-08-20T02:12:25;20.50;99.90
13074;DHT22;6603;47.066;15.396;2023-08-20T02:14:52;20.40;99.90
13074;DHT22;6603;47.066;15.396;2023-08-20T02:17:18;20.30;99.90
13074;DHT22;6603;47.066;15.396;2023-08-20T02:19:43;20.20;99.90
13074;DHT22;6603;47.066;15.396;2023-08-20T02:22:09;20.20;99.90
13074;DHT22;6603;47.066;15.396;2023-08-20T02:24:35;20.10;99.90
13074;DHT22;6603;47.066;15.396;2023-08-20T02:27:01;20.10;99.90
13074;DHT22;6603;47.066;15.396;2023-08-20T02:29:27;20.10;99.90
13074;DHT22;6603;47.066;15.396;2023-08-20T02:31:53;20.00;99.90
13074;DHT22;6603;47.066;15.396;2023-08-20T02:34:18;19.90;99.90
13074;DHT22;6603;47.066;15.396;2023-08-20T02:36:44;19.90;99.90
13074;DHT22;6603;47.066;15.396;2023-08-20T02:39:10;19.80;99.90
13074;DHT22;6603;47.066;15.396;2023-08-20T02:41:36;19.80;99.90
13074;DHT22;6603;47.066;15.396;2023-08-20T02:44:03;19.70;99.90
13074;DHT22;6603;47.066;15.396;2023-08-20T02:46:29;19.70;99.90
13074;DHT22;6603;47.066;15.396;2023-08-20T02:48:55;19.70;99.90
13074;DHT22;6603;47.066;15.396;2023-08-20T02:51:21;19.70;99.90
13074;DHT22;6603;47.066;15.396;2023-08-20T02:53:48;19.60;99.90
13074;DHT22;6603;47.066;15.396;2023-08-20T02:56:13;19.60;99.90
13074;DHT22;6603;47.066;15.396;2023-08-20T02:58:39;19.50;99.90
13074;DHT22;6603;47.066;15.396;2023-08-20T03:01:05;19.40;99.90
13074;DHT22;6603;47.066;15.396;2023-08-20T03:03:31;19.30;99.90
13074;DHT22;6603;47.066;15.396;2023-08-20T03:05:57;19.30;99.90
13074;DHT22;6603;47.066;15.396;2023-08-20T03:08:23;19.20;99.90
13074;DHT22;6603;47.066;15.396;2023-08-20T03:10:48;19.20;99.90
13074;DHT22;6603;47.066;15.396;2023-08-20T03:13:14;19.20;99.90
13074;DHT22;6603;47.066;15.396;2023-08-20T03:15:40;19.20;99.90
13074;DHT22;6603;47.066;15.396;2023-08-20T03:18:06;19.20;99.90
13074;DHT22;6603;47.066;15.396;2023-08-20T03:20:32;19.10;99.90
13074;DHT22;6603;47.066;15.396;2023-08-20T03:22:58;19.10;99.90
13074;DHT22;6603;47.066;15.396;2023-08-20T03:25:23;19.10;99.90
13074;DHT22;6603;47.066;15.396;2023-08-20T03:27:51;19.10;99.90
13074;DHT22;6603;47.066;15.396;2023-08-20T03:30:17;19.10;99.90
13074;DHT22;6603;47.066;15.396;2023-08-20T03:32:43;19.10;99.90
13074;DHT22;6603;47.066;15.396;2023-08-20T03:35:09;19.00;99.90
13074;DHT22;6603;47.066;15.396;2023-08-20T03:37:35;18.90;99.90
13074;DHT22;6603;47.066;15.396;2023-08-20T03:40:00;18.90;99.90
13074;DHT22;6603;47.066;15.396;2023-08-20T03:42:26;18.90;99.90
13074;DHT22;6603;47.066;15.396;2023-08-20T03:44:52;18.80;99.90
13074;DHT22;6603;47.066;15.396;2023-08-20T03:47:18;18.70;99.90
13074;DHT22;6603;47.066;15.396;2023-08-20T03:49:46;18.70;99.90
13074;DHT22;6603;47.066;15.396;2023-08-20T03:52:15;18.70;99.90
13074;DHT22;6603;47.066;15.396;2023-08-20T03:54:41;18.70;99.90
13074;DHT22;6603;47.066;15.396;2023-08-20T03:57:07;18.70;99.90
13074;DHT22;6603;47.066;15.396;2023-08-20T03:59:33;18.70;99.90
13074;DHT22;6603;47.066;15.396;2023-08-20T04:01:59;18.70;99.90
13074;DHT22;6603;47.066;15.396;2023-08-20T04:04:25;18.70;99.90
13074;DHT22;6603;47.066;15.396;2023-08-20T04:06:51;18.70;99.90
13074;DHT22;6603;47.066;15.396;2023-08-20T04:09:17;18.80;99.90
13074;DHT22;6603;47.066;15.396;2023-08-20T04:11:43;18.70;99.90
13074;DHT22;6603;47.066;15.396;2023-08-20T04:14:09;18.70;99.90
13074;DHT22;6603;47.066;15.396;2023-08-20T04:16:35;18.70;99.90
13074;DHT22;6603;47.066;15.396;2023-08-20T04:19:01;18.70;99.90
13074;DHT22;6603;47.066;15.396;2023-08-20T04:21:27;18.70;99.90
13074;DHT22;6603;47.066;15.396;2023-08-20T04:23:52;18.70;99.90
13074;DHT22;6603;47.066;15.396;2023-08-20T04:26:18;18.70;99.90
13074;DHT22;6603;47.066;15.396;2023-08-20T04:28:44;18.70;99.90
13074;DHT22;6603;47.066;15.396;2023-08-20T04:31:10;18.60;99.90
13074;DHT22;6603;47.066;15.396;2023-08-20T04:33:36;18.70;99.90
13074;DHT22;6603;47.066;15.396;2023-08-20T04:36:02;18.70;99.90
13074;DHT22;6603;47.066;15.396;2023-08-20T04:38:28;18.70;99.90
13074;DHT22;6603;47.066;15.396;2023-08-20T04:40:54;18.70;99.90
13074;DHT22;6603;47.066;15.396;2023-08-20T04:43:20;18.80;99.90
13074;DHT22;6603;47.066;15.396;2023-08-20T04:45:46;18.80;99.90
13074;DHT22;6603;47.066;15.396;2023-08-20T04:48:12;18.90;99.90
13074;DHT22;6603;47.066;15.396;2023-08-20T04:50:37;19.00;99.90
13074;DHT22;6603;47.066;15.396;2023-08-20T04:53:03;19.00;99.90
13074;DHT22;6603;47.066;15.396;2023-08-20T04:55:29;19.10;99.90
13074;DHT22;6603;47.066;15.396;2023-08-20T04:57:55;19.00;99.90
13074;DHT22;6603;47.066;15.396;2023-08-20T05:00:22;19.00;99.90
13074;DHT22;6603;47.066;15.396;2023-08-20T05:02:48;19.00;99.90
13074;DHT22;6603;47.066;15.396;2023-08-20T05:05:14;19.20;99.90
13074;DHT22;6603;47.066;15.396;2023-08-20T05:07:41;19.20;99.90
13074;DHT22;6603;47.066;15.396;2023-08-20T05:10:07;19.30;99.90
13074;DHT22;6603;47.066;15.396;2023-08-20T05:12:35;19.40;99.90
13074;DHT22;6603;47.066;15.396;2023-08-20T05:15:01;19.50;99.90
13074;DHT22;6603;47.066;15.396;2023-08-20T05:17:27;19.40;99.90
13074;DHT22;6603;47.066;15.396;2023-08-20T05:19:52;19.50;99.90
13074;DHT22;6603;47.066;15.396;2023-08-20T05:22:19;19.50;99.90
13074;DHT22;6603;47.066;15.396;2023-08-20T05:24:45;19.60;99.90
13074;DHT22;6603;47.066;15.396;2023-08-20T05:27:15;19.80;99.90
13074;DHT22;6603;47.066;15.396;2023-08-20T05:29:43;19.90;99.90
13074;DHT22;6603;47.066;15.396;2023-08-20T05:32:10;20.00;99.90
13074;DHT22;6603;47.066;15.396;2023-08-20T05:34:36;20.20;99.90
13074;DHT22;6603;47.066;15.396;2023-08-20T05:37:02;20.30;99.90
13074;DHT22;6603;47.066;15.396;2023-08-20T05:39:40;20.50;99.90
13074;DHT22;6603;47.066;15.396;2023-08-20T05:42:06;20.60;99.90
13074;DHT22;6603;47.066;15.396;2023-08-20T05:44:32;20.70;99.90
13074;DHT22;6603;47.066;15.396;2023-08-20T05:46:58;20.80;99.90
13074;DHT22;6603;47.066;15.396;2023-08-20T05:49:24;20.90;99.90
13074;DHT22;6603;47.066;15.396;2023-08-20T05:51:50;21.10;99.90
13074;DHT22;6603;47.066;15.396;2023-08-20T05:54:16;21.30;99.90
13074;DHT22;6603;47.066;15.396;2023-08-20T05:56:42;21.40;99.90
13074;DHT22;6603;47.066;15.396;2023-08-20T05:59:08;21.50;99.90
13074;DHT22;6603;47.066;15.396;2023-08-20T06:01:33;21.60;99.90
13074;DHT22;6603;47.066;15.396;2023-08-20T06:03:59;21.80;99.90
13074;DHT22;6603;47.066;15.396;2023-08-20T06:06:26;21.90;99.90
13074;DHT22;6603;47.066;15.396;2023-08-20T06:08:52;21.90;99.90
13074;DHT22;6603;47.066;15.396;2023-08-20T06:11:19;21.90;99.90
13074;DHT22;6603;47.066;15.396;2023-08-20T06:13:45;22.10;99.90
13074;DHT22;6603;47.066;15.396;2023-08-20T06:16:10;22.10;99.90
13074;DHT22;6603;47.066;15.396;2023-08-20T06:18:36;22.20;99.90
13074;DHT22;6603;47.066;15.396;2023-08-20T06:21:03;22.20;99.90
13074;DHT22;6603;47.066;15.396;2023-08-20T06:23:29;22.40;99.90
13074;DHT22;6603;47.066;15.396;2023-08-20T06:25:55;22.40;99.90
13074;DHT22;6603;47.066;15.396;2023-08-20T06:28:22;22.50;99.90
13074;DHT22;6603;47.066;15.396;2023-08-20T06:30:48;22.50;99.90
13074;DHT22;6603;47.066;15.396;2023-08-20T06:33:13;22.60;99.90
13074;DHT22;6603;47.066;15.396;2023-08-20T06:35:39;22.70;99.90
13074;DHT22;6603;47.066;15.396;2023-08-20T06:38:07;22.70;99.90
13074;DHT22;6603;47.066;15.396;2023-08-20T06:40:33;22.80;99.90
13074;DHT22;6603;47.066;15.396;2023-08-20T06:42:59;22.90;99.90
13074;DHT22;6603;47.066;15.396;2023-08-20T06:45:25;22.90;99.90
13074;DHT22;6603;47.066;15.396;2023-08-20T06:47:51;23.00;99.90
13074;DHT22;6603;47.066;15.396;2023-08-20T06:50:17;23.00;99.90
13074;DHT22;6603;47.066;15.396;2023-08-20T06:52:43;23.20;99.90
13074;DHT22;6603;47.066;15.396;2023-08-20T06:55:09;23.30;99.90
13074;DHT22;6603;47.066;15.396;2023-08-20T06:57:35;23.30;99.90
13074;DHT22;6603;47.066;15.396;2023-08-20T07:00:01;23.40;99.90
13074;DHT22;6603;47.066;15.396;2023-08-20T07:02:26;23.50;99.90
13074;DHT22;6603;47.066;15.396;2023-08-20T07:04:52;23.60;99.90
13074;DHT22;6603;47.066;15.396;2023-08-20T07:07:18;23.60;99.90
13074;DHT22;6603;47.066;15.396;2023-08-20T07:09:44;23.70;86.20
13074;DHT22;6603;47.066;15.396;2023-08-20T07:12:10;23.80;42.80
13074;DHT22;6603;47.066;15.396;2023-08-20T07:14:36;23.90;99.90
13074;DHT22;6603;47.066;15.396;2023-08-20T07:17:02;24.00;56.80
13074;DHT22;6603;47.066;15.396;2023-08-20T07:19:28;24.10;61.40
13074;DHT22;6603;47.066;15.396;2023-08-20T07:21:54;24.20;47.20
13074;DHT22;6603;47.066;15.396;2023-08-20T07:24:21;24.20;46.50
13074;DHT22;6603;47.066;15.396;2023-08-20T07:26:51;24.20;91.10
13074;DHT22;6603;47.066;15.396;2023-08-20T07:29:18;24.20;55.50
13074;DHT22;6603;47.066;15.396;2023-08-20T07:31:44;24.20;13.10
13074;DHT22;6603;47.066;15.396;2023-08-20T07:34:10;24.30;34.90
13074;DHT22;6603;47.066;15.396;2023-08-20T07:36:36;24.40;40.00
13074;DHT22;6603;47.066;15.396;2023-08-20T07:39:02;24.50;37.20
13074;DHT22;6603;47.066;15.396;2023-08-20T07:41:28;24.60;20.90
13074;DHT22;6603;47.066;15.396;2023-08-20T07:43:54;24.60;1.00
13074;DHT22;6603;47.066;15.396;2023-08-20T07:46:20;24.80;1.00
13074;DHT22;6603;47.066;15.396;2023-08-20T07:48:46;24.90;1.00
13074;DHT22;6603;47.066;15.396;2023-08-20T07:51:12;25.00;1.00
13074;DHT22;6603;47.066;15.396;2023-08-20T07:53:38;25.10;1.00
13074;DHT22;6603;47.066;15.396;2023-08-20T07:56:04;25.10;1.00
13074;DHT22;6603;47.066;15.396;2023-08-20T07:58:30;25.10;1.00
13074;DHT22;6603;47.066;15.396;2023-08-20T08:00:56;25.30;1.00
13074;DHT22;6603;47.066;15.396;2023-08-20T08:03:25;25.40;1.00
13074;DHT22;6603;47.066;15.396;2023-08-20T08:05:51;25.40;1.00
13074;DHT22;6603;47.066;15.396;2023-08-20T08:08:18;25.40;1.00
13074;DHT22;6603;47.066;15.396;2023-08-20T08:10:45;25.60;1.00
13074;DHT22;6603;47.066;15.396;2023-08-20T08:13:17;25.60;1.00
13074;DHT22;6603;47.066;15.396;2023-08-20T08:15:44;25.60;1.00
13074;DHT22;6603;47.066;15.396;2023-08-20T08:18:10;25.60;1.00
13074;DHT22;6603;47.066;15.396;2023-08-20T08:20:36;25.60;1.00
13074;DHT22;6603;47.066;15.396;2023-08-20T08:23:02;25.70;1.00
13074;DHT22;6603;47.066;15.396;2023-08-20T08:25:28;25.70;1.00
13074;DHT22;6603;47.066;15.396;2023-08-20T08:27:54;25.80;99.90
13074;DHT22;6603;47.066;15.396;2023-08-20T08:30:20;26.00;1.00
13074;DHT22;6603;47.066;15.396;2023-08-20T08:59:01;26.80;1.00
13074;DHT22;6603;47.066;15.396;2023-08-20T09:01:29;26.90;99.90
13074;DHT22;6603;47.066;15.396;2023-08-20T09:03:55;27.00;1.00
13074;DHT22;6603;47.066;15.396;2023-08-20T09:06:21;27.10;1.00
13074;DHT22;6603;47.066;15.396;2023-08-20T09:08:47;27.20;1.00
13074;DHT22;6603;47.066;15.396;2023-08-20T09:11:12;27.30;99.90
13074;DHT22;6603;47.066;15.396;2023-08-20T09:13:41;27.30;1.00
13074;DHT22;6603;47.066;15.396;2023-08-20T09:16:09;27.30;1.00
13074;DHT22;6603;47.066;15.396;2023-08-20T09:18:45;27.20;1.00
13074;DHT22;6603;47.066;15.396;2023-08-20T09:21:13;27.10;99.90
13074;DHT22;6603;47.066;15.396;2023-08-20T09:23:39;27.30;1.00
13074;DHT22;6603;47.066;15.396;2023-08-20T09:26:07;27.30;1.00
13074;DHT22;6603;47.066;15.396;2023-08-20T09:28:43;27.40;56.80
13074;DHT22;6603;47.066;15.396;2023-08-20T09:31:09;27.60;99.90
13074;DHT22;6603;47.066;15.396;2023-08-20T09:33:35;27.70;1.00
13074;DHT22;6603;47.066;15.396;2023-08-20T09:36:05;27.40;1.00
13074;DHT22;6603;47.066;15.396;2023-08-20T09:38:36;27.50;1.00
13074;DHT22;6603;47.066;15.396;2023-08-20T09:41:05;27.70;99.90
13074;DHT22;6603;47.066;15.396;2023-08-20T09:43:37;27.60;1.00
13074;DHT22;6603;47.066;15.396;2023-08-20T09:46:05;27.80;99.90
13074;DHT22;6603;47.066;15.396;2023-08-20T09:48:35;27.90;1.00
13074;DHT22;6603;47.066;15.396;2023-08-20T09:51:08;28.10;1.00
13074;DHT22;6603;47.066;15.396;2023-08-20T09:53:43;28.20;99.90
13074;DHT22;6603;47.066;15.396;2023-08-20T09:56:22;28.30;1.00
13074;DHT22;6603;47.066;15.396;2023-08-20T09:58:50;28.50;99.90
13074;DHT22;6603;47.066;15.396;2023-08-20T10:01:17;28.50;1.00
13074;DHT22;6603;47.066;15.396;2023-08-20T11:12:46;29.60;1.00
13074;DHT22;6603;47.066;15.396;2023-08-20T11:15:13;29.70;1.00
13074;DHT22;6603;47.066;15.396;2023-08-20T11:17:42;29.60;1.00
13074;DHT22;6603;47.066;15.396;2023-08-20T11:20:09;29.80;99.90
13074;DHT22;6603;47.066;15.396;2023-08-20T11:22:38;29.70;99.90
13074;DHT22;6603;47.066;15.396;2023-08-20T11:25:05;30.00;1.00
13074;DHT22;6603;47.066;15.396;2023-08-20T11:27:30;30.30;16.60
13074;DHT22;6603;47.066;15.396;2023-08-20T11:29:58;30.40;1.00
13074;DHT22;6603;47.066;15.396;2023-08-20T11:32:24;30.20;99.90
13074;DHT22;6603;47.066;15.396;2023-08-20T11:34:50;30.50;99.90
13074;DHT22;6603;47.066;15.396;2023-08-20T11:37:22;30.30;1.00
13074;DHT22;6603;47.066;15.396;2023-08-20T11:39:48;30.10;1.00
13074;DHT22;6603;47.066;15.396;2023-08-20T11:42:15;30.10;57.50
13074;DHT22;6603;47.066;15.396;2023-08-20T11:44:43;30.50;1.00
13074;DHT22;6603;47.066;15.396;2023-08-20T11:47:16;30.60;1.00
13074;DHT22;6603;47.066;15.396;2023-08-20T11:49:43;30.40;1.00
13074;DHT22;6603;47.066;15.396;2023-08-20T11:52:10;30.40;1.00
13074;DHT22;6603;47.066;15.396;2023-08-20T11:54:36;30.60;99.90
13074;DHT22;6603;47.066;15.396;2023-08-20T11:57:04;30.80;77.10
13074;DHT22;6603;47.066;15.396;2023-08-20T11:59:30;30.70;1.00
13074;DHT22;6603;47.066;15.396;2023-08-20T12:02:00;30.80;1.00
13074;DHT22;6603;47.066;15.396;2023-08-20T12:04:28;30.90;1.00
13074;DHT22;6603;47.066;15.396;2023-08-20T12:07:14;30.80;1.00
13074;DHT22;6603;47.066;15.396;2023-08-20T12:09:40;31.10;1.00
13074;DHT22;6603;47.066;15.396;2023-08-20T12:12:08;30.90;1.00
13074;DHT22;6603;47.066;15.396;2023-08-20T12:14:37;31.20;1.00
13074;DHT22;6603;47.066;15.396;2023-08-20T12:17:03;31.00;1.00
13074;DHT22;6603;47.066;15.396;2023-08-20T12:19:29;31.20;1.00
13074;DHT22;6603;47.066;15.396;2023-08-20T12:21:55;31.40;1.00
13074;DHT22;6603;47.066;15.396;2023-08-20T12:24:21;31.30;99.90
13074;DHT22;6603;47.066;15.396;2023-08-20T12:26:47;31.30;99.90
13074;DHT22;6603;47.066;15.396;2023-08-20T12:29:13;31.30;99.90
13074;DHT22;6603;47.066;15.396;2023-08-20T12:31:40;31.50;13.90
13074;DHT22;6603;47.066;15.396;2023-08-20T12:34:06;31.40;62.20
13074;DHT22;6603;47.066;15.396;2023-08-20T12:36:34;31.30;1.00
13074;DHT22;6603;47.066;15.396;2023-08-20T12:38:59;31.50;45.70
13074;DHT22;6603;47.066;15.396;2023-08-20T12:41:25;31.90;1.00
13074;DHT22;6603;47.066;15.396;2023-08-20T12:43:51;31.80;12.00
13074;DHT22;6603;47.066;15.396;2023-08-20T12:46:17;32.00;1.00
13074;DHT22;6603;47.066;15.396;2023-08-20T12:48:43;32.20;1.00
13074;DHT22;6603;47.066;15.396;2023-08-20T12:51:09;32.10;1.00
13074;DHT22;6603;47.066;15.396;2023-08-20T12:53:39;32.30;1.00
13074;DHT22;6603;47.066;15.396;2023-08-20T12:56:05;32.20;1.00
13074;DHT22;6603;47.066;15.396;2023-08-20T12:58:31;32.10;1.00
13074;DHT22;6603;47.066;15.396;2023-08-20T13:00:57;32.00;1.00
13074;DHT22;6603;47.066;15.396;2023-08-20T13:03:23;32.30;1.00
13074;DHT22;6603;47.066;15.396;2023-08-20T13:05:50;32.40;1.00
13074;DHT22;6603;47.066;15.396;2023-08-20T13:08:16;32.20;1.00
13074;DHT22;6603;47.066;15.396;2023-08-20T13:10:47;32.50;1.00
13074;DHT22;6603;47.066;15.396;2023-08-20T13:13:15;32.70;1.00
13074;DHT22;6603;47.066;15.396;2023-08-20T13:15:42;32.70;1.00
13074;DHT22;6603;47.066;15.396;2023-08-20T13:18:08;33.00;1.00
13074;DHT22;6603;47.066;15.396;2023-08-20T13:20:34;33.00;1.00
13074;DHT22;6603;47.066;15.396;2023-08-20T13:23:00;33.20;1.00
13074;DHT22;6603;47.066;15.396;2023-08-20T13:25:26;32.90;1.00
13074;DHT22;6603;47.066;15.396;2023-08-20T13:27:52;32.40;1.00
13074;DHT22;6603;47.066;15.396;2023-08-20T13:30:18;31.90;1.00
13074;DHT22;6603;47.066;15.396;2023-08-20T13:32:45;32.00;1.00
13074;DHT22;6603;47.066;15.396;2023-08-20T13:35:10;32.30;1.00
13074;DHT22;6603;47.066;15.396;2023-08-20T13:37:36;32.50;1.00
13074;DHT22;6603;47.066;15.396;2023-08-20T13:40:02;32.50;1.00
13074;DHT22;6603;47.066;15.396;2023-08-20T13:42:32;32.60;1.00
13074;DHT22;6603;47.066;15.396;2023-08-20T13:44:58;32.50;1.00
13074;DHT22;6603;47.066;15.396;2023-08-20T13:47:24;32.50;1.00
13074;DHT22;6603;47.066;15.396;2023-08-20T13:49:49;32.40;1.00
13074;DHT22;6603;47.066;15.396;2023-08-20T13:52:15;32.60;1.00
13074;DHT22;6603;47.066;15.396;2023-08-20T13:54:41;32.40;1.00
13074;DHT22;6603;47.066;15.396;2023-08-20T13:57:06;32.40;1.00
13074;DHT22;6603;47.066;15.396;2023-08-20T13:59:32;32.70;1.00
13074;DHT22;6603;47.066;15.396;2023-08-20T14:01:58;32.80;1.00
13074;DHT22;6603;47.066;15.396;2023-08-20T14:04:24;32.90;1.00
13074;DHT22;6603;47.066;15.396;2023-08-20T14:06:50;32.50;1.00
13074;DHT22;6603;47.066;15.396;2023-08-20T14:09:16;32.50;1.00
13074;DHT22;6603;47.066;15.396;2023-08-20T14:11:45;32.60;1.00
13074;DHT22;6603;47.066;15.396;2023-08-20T14:14:11;32.20;1.00
13074;DHT22;6603;47.066;15.396;2023-08-20T14:16:37;32.30;1.00
13074;DHT22;6603;47.066;15.396;2023-08-20T14:19:03;32.30;1.00
13074;DHT22;6603;47.066;15.396;2023-08-20T14:21:29;32.30;1.00
13074;DHT22;6603;47.066;15.396;2023-08-20T14:23:54;32.50;1.00
13074;DHT22;6603;47.066;15.396;2023-08-20T14:26:20;32.30;1.00
13074;DHT22;6603;47.066;15.396;2023-08-20T14:28:46;32.20;1.00
13074;DHT22;6603;47.066;15.396;2023-08-20T14:31:12;32.20;1.00
13074;DHT22;6603;47.066;15.396;2023-08-20T14:33:38;32.30;1.00
13074;DHT22;6603;47.066;15.396;2023-08-20T14:36:03;32.60;1.00
13074;DHT22;6603;47.066;15.396;2023-08-20T14:38:30;32.60;1.00
13074;DHT22;6603;47.066;15.396;2023-08-20T14:41:00;32.70;1.00
13074;DHT22;6603;47.066;15.396;2023-08-20T14:43:27;32.70;1.00
13074;DHT22;6603;47.066;15.396;2023-08-20T14:45:53;32.50;1.00
13074;DHT22;6603;47.066;15.396;2023-08-20T14:48:20;32.50;1.00
13074;DHT22;6603;47.066;15.396;2023-08-20T14:50:46;32.50;1.00
13074;DHT22;6603;47.066;15.396;2023-08-20T14:53:15;32.50;1.00
13074;DHT22;6603;47.066;15.396;2023-08-20T14:55:41;32.10;1.00
13074;DHT22;6603;47.066;15.396;2023-08-20T14:58:07;32.20;1.00
13074;DHT22;6603;47.066;15.396;2023-08-20T15:00:33;32.30;1.00
13074;DHT22;6603;47.066;15.396;2023-08-20T15:02:59;32.60;1.00
13074;DHT22;6603;47.066;15.396;2023-08-20T15:05:25;32.50;1.00
13074;DHT22;6603;47.066;15.396;2023-08-20T15:07:50;32.60;1.00
13074;DHT22;6603;47.066;15.396;2023-08-20T15:10:16;32.70;1.00
13074;DHT22;6603;47.066;15.396;2023-08-20T15:12:42;32.70;1.00
13074;DHT22;6603;47.066;15.396;2023-08-20T15:15:08;32.60;1.00
13074;DHT22;6603;47.066;15.396;2023-08-20T15:17:35;32.60;1.00
13074;DHT22;6603;47.066;15.396;2023-08-20T15:20:02;32.70;1.00
13074;DHT22;6603;47.066;15.396;2023-08-20T15:22:34;32.50;1.00
13074;DHT22;6603;47.066;15.396;2023-08-20T15:25:00;32.50;1.00
13074;DHT22;6603;47.066;15.396;2023-08-20T15:27:26;32.40;1.00
13074;DHT22;6603;47.066;15.396;2023-08-20T15:29:52;32.40;1.00
13074;DHT22;6603;47.066;15.396;2023-08-20T15:32:17;32.50;1.00
13074;DHT22;6603;47.066;15.396;2023-08-20T15:34:43;32.60;1.00
13074;DHT22;6603;47.066;15.396;2023-08-20T15:37:09;32.70;1.00
13074;DHT22;6603;47.066;15.396;2023-08-20T15:39:35;32.40;1.00
13074;DHT22;6603;47.066;15.396;2023-08-20T15:42:01;32.40;1.00
13074;DHT22;6603;47.066;15.396;2023-08-20T15:44:28;32.30;1.00
13074;DHT22;6603;47.066;15.396;2023-08-20T15:46:54;32.30;1.00
13074;DHT22;6603;47.066;15.396;2023-08-20T15:49:19;32.20;1.00
13074;DHT22;6603;47.066;15.396;2023-08-20T15:51:45;32.00;1.00
13074;DHT22;6603;47.066;15.396;2023-08-20T15:54:12;31.90;1.00
13074;DHT22;6603;47.066;15.396;2023-08-20T15:56:39;31.90;1.00
13074;DHT22;6603;47.066;15.396;2023-08-20T15:59:05;31.90;81.00
13074;DHT22;6603;47.066;15.396;2023-08-20T16:01:31;32.10;1.00
13074;DHT22;6603;47.066;15.396;2023-08-20T16:03:57;32.10;1.00
13074;DHT22;6603;47.066;15.396;2023-08-20T16:06:24;31.90;1.00
13074;DHT22;6603;47.066;15.396;2023-08-20T16:08:50;32.00;1.00
13074;DHT22;6603;47.066;15.396;2023-08-20T16:11:16;32.00;1.00
13074;DHT22;6603;47.066;15.396;2023-08-20T16:13:43;31.90;1.00
13074;DHT22;6603;47.066;15.396;2023-08-20T16:16:14;31.80;99.90
13074;DHT22;6603;47.066;15.396;2023-08-20T16:18:42;31.60;99.90
13074;DHT22;6603;47.066;15.396;2023-08-20T16:21:08;31.70;99.90
13074;DHT22;6603;47.066;15.396;2023-08-20T16:23:35;31.70;1.00
13074;DHT22;6603;47.066;15.396;2023-08-20T16:26:01;31.70;1.00
13074;DHT22;6603;47.066;15.396;2023-08-20T16:28:29;31.90;99.90
13074;DHT22;6603;47.066;15.396;2023-08-20T16:30:55;31.90;57.00
13074;DHT22;6603;47.066;15.396;2023-08-20T16:33:21;32.00;1.00
13074;DHT22;6603;47.066;15.396;2023-08-20T16:35:50;32.20;1.00
13074;DHT22;6603;47.066;15.396;2023-08-20T16:38:16;32.70;1.00
13074;DHT22;6603;47.066;15.396;2023-08-20T16:40:42;32.60;1.00
13074;DHT22;6603;47.066;15.396;2023-08-20T16:43:08;32.50;1.00
13074;DHT22;6603;47.066;15.396;2023-08-20T16:45:35;32.20;1.00
13074;DHT22;6603;47.066;15.396;2023-08-20T16:48:02;32.10;1.00
13074;DHT22;6603;47.066;15.396;2023-08-20T16:50:28;31.50;46.90
13074;DHT22;6603;47.066;15.396;2023-08-20T16:52:57;31.20;6.90
13074;DHT22;6603;47.066;15.396;2023-08-20T16:55:24;30.80;28.40
13074;DHT22;6603;47.066;15.396;2023-08-20T16:57:50;30.50;5.30
13074;DHT22;6603;47.066;15.396;2023-08-20T17:00:16;30.10;97.20
13074;DHT22;6603;47.066;15.396;2023-08-20T17:02:42;29.50;1.00
13074;DHT22;6603;47.066;15.396;2023-08-20T17:05:08;29.10;1.00
13074;DHT22;6603;47.066;15.396;2023-08-20T17:07:34;28.50;1.00
13074;DHT22;6603;47.066;15.396;2023-08-20T17:10:00;28.10;1.00
13074;DHT22;6603;47.066;15.396;2023-08-20T17:12:26;28.10;99.90
13074;DHT22;6603;47.066;15.396;2023-08-20T17:14:52;27.90;1.00
13074;DHT22;6603;47.066;15.396;2023-08-20T17:17:18;27.80;99.90